Time;durP1;ratioP1;P1;durP2;ratioP2;P2;SDS_P1;SDS_P2;PMS_P1;PMS_P2;Temp;Humidity;BMP_temperature;BMP_pressure;BME280_temperature;BME280_humidity;BME280_pressure;Samples;Min_cycle;Max_cycle;Signal;HPM_P1;HPM_P2
2022/09/29 00:02:02;;;;;;;10.17;4.33;;;;;;;40.78;33.97;101191.94;5034950;28;20446;-72
2022/09/29 00:04:28;;;;;;;7.80;4.70;;;;;;;40.87;33.75;101202.81;5034835;28;20419;-72
2022/09/29 00:06:54;;;;;;;9.37;3.97;;;;;;;40.75;34.20;101189.84;5035194;28;20427;-72
2022/09/29 00:09:20;;;;;;;8.30;4.90;;;;;;;40.92;33.70;101192.63;5035004;28;20470;-73
2022/09/29 00:11:46;;;;;;;17.40;4.77;;;;;;;40.86;33.83;101184.91;5034832;28;20510;-72
2022/09/29 00:14:12;;;;;;;12.97;3.90;;;;;;;40.89;33.79;101182.34;5034824;28;20491;-70
2022/09/29 00:16:38;;;;;;;9.37;5.37;;;;;;;40.98;33.61;101183.16;5034688;28;20845;-71
2022/09/29 00:19:04;;;;;;;11.40;4.10;;;;;;;41.03;33.36;101190.38;5033798;28;20459;-71
2022/09/29 00:21:30;;;;;;;11.07;4.53;;;;;;;40.91;33.71;101176.63;5034667;28;20435;-70
2022/09/29 00:23:56;;;;;;;11.50;5.07;;;;;;;40.93;33.63;101183.31;5031043;28;20486;-70
2022/09/29 00:26:23;;;;;;;16.00;4.50;;;;;;;41.00;33.30;101180.13;5031295;28;20934;-71
2022/09/29 00:28:58;;;;;;;8.60;4.60;;;;;;;41.01;33.61;101179.03;5031061;28;21025;-70
2022/09/29 00:31:28;;;;;;;15.17;5.77;;;;;;;40.94;33.39;101170.53;5032937;28;20398;-72
2022/09/29 00:33:54;;;;;;;10.87;3.97;;;;;;;40.91;33.39;101174.69;5031206;28;20423;-72
2022/09/29 00:36:22;;;;;;;11.53;5.27;;;;;;;40.87;33.68;101167.44;5031026;28;20434;-72
2022/09/29 00:38:51;;;;;;;8.83;5.10;;;;;;;40.66;34.05;101157.19;5031190;28;21000;-70
2022/09/29 00:41:24;;;;;;;13.27;5.47;;;;;;;40.83;33.71;101161.06;5031368;28;20424;-71
2022/09/29 00:43:57;;;;;;;11.30;4.80;;;;;;;40.85;33.72;101156.09;5031535;28;20400;-71
2022/09/29 00:46:30;;;;;;;19.40;7.20;;;;;;;40.72;33.60;101152.41;5031081;28;20423;-70
2022/09/29 00:49:01;;;;;;;6.53;3.80;;;;;;;40.67;33.89;101156.09;5031072;28;20811;-70
2022/09/29 00:51:30;;;;;;;9.20;4.37;;;;;;;40.83;33.83;101144.75;5032967;28;20403;-70
2022/09/29 00:53:58;;;;;;;8.03;5.33;;;;;;;40.81;33.76;101147.75;5032764;28;20404;-71
2022/09/29 00:56:25;;;;;;;9.07;4.83;;;;;;;40.87;34.04;101142.97;4998351;28;20446;-71
2022/09/29 00:58:59;;;;;;;11.27;5.50;;;;;;;40.80;33.89;101138.81;5014712;28;20517;-70
2022/09/29 01:01:30;;;;;;;15.70;6.70;;;;;;;40.76;34.20;101137.88;5014449;28;20439;-70
2022/09/29 01:04:01;;;;;;;11.80;5.30;;;;;;;40.65;34.17;101136.56;5031004;28;20419;-71
2022/09/29 01:06:35;;;;;;;11.40;5.47;;;;;;;40.64;34.45;101134.16;5030992;28;20412;-70
2022/09/29 01:09:03;;;;;;;13.63;5.63;;;;;;;40.41;34.67;101134.25;5030896;28;20435;-70
2022/09/29 01:11:30;;;;;;;11.30;5.30;;;;;;;40.14;35.20;101126.34;5032556;28;20403;-70
2022/09/29 01:14:02;;;;;;;12.37;6.13;;;;;;;40.42;34.92;101130.44;5032515;28;20933;-70
2022/09/29 01:16:29;;;;;;;9.53;4.27;;;;;;;40.69;34.44;101129.34;5032371;28;20431;-70
2022/09/29 01:18:58;;;;;;;8.57;5.10;;;;;;;40.56;33.93;101122.16;5014433;28;20841;-71
2022/09/29 01:21:34;;;;;;;10.07;5.20;;;;;;;40.59;34.39;101118.81;5030766;28;20892;-71
2022/09/29 01:24:33;;;;;;;9.37;4.47;;;;;;;40.72;34.43;101115.13;5030516;28;20482;-71
2022/09/29 01:27:20;;;;;;;10.97;5.03;;;;;;;40.49;34.32;101109.03;5032365;28;20801;-72
2022/09/29 01:29:58;;;;;;;9.80;5.70;;;;;;;40.43;34.26;101101.31;5032013;28;20506;-72
2022/09/29 01:32:29;;;;;;;9.60;4.37;;;;;;;40.14;34.80;101102.69;5034361;28;20506;-72
2022/09/29 01:35:32;;;;;;;9.20;5.43;;;;;;;40.38;34.34;101101.47;5034387;28;20415;-70
2022/09/29 01:38:28;;;;;;;9.80;4.40;;;;;;;40.10;35.28;101107.19;5034211;28;20458;-70
2022/09/29 01:41:27;;;;;;;8.80;5.20;;;;;;;40.28;34.50;101106.09;5034234;28;20435;-70
2022/09/29 01:44:05;;;;;;;7.00;4.40;;;;;;;40.08;34.74;101092.28;5034114;28;20922;-70
2022/09/29 01:46:35;;;;;;;8.53;4.13;;;;;;;39.93;34.79;101088.06;5018856;28;20423;-70
2022/09/29 01:49:03;;;;;;;8.10;4.97;;;;;;;39.56;35.70;101092.84;5035495;28;20466;-70
2022/09/29 01:51:53;;;;;;;7.53;4.77;;;;;;;40.09;35.25;101091.19;5034020;28;20426;-71
2022/09/29 01:54:26;;;;;;;9.47;5.20;;;;;;;39.56;35.64;101092.84;5033895;28;20431;-72
2022/09/29 01:57:00;;;;;;;8.60;4.83;;;;;;;39.56;35.81;101094.75;5035541;28;20475;-72
2022/09/29 01:59:53;;;;;;;9.00;4.20;;;;;;;39.13;36.23;101096.06;5033816;28;20451;-72
2022/09/29 02:02:32;;;;;;;10.10;4.73;;;;;;;39.46;35.78;101093.09;5033843;28;20419;-70
2022/09/29 02:05:02;;;;;;;8.27;4.00;;;;;;;39.82;35.33;101089.47;5035386;28;20439;-70
2022/09/29 02:07:35;;;;;;;13.00;4.10;;;;;;;39.45;35.74;101094.22;5033790;28;20776;-70
2022/09/29 02:10:08;;;;;;;11.10;4.27;;;;;;;39.81;35.50;101093.31;5035378;28;20820;-70
2022/09/29 02:12:39;;;;;;;9.43;4.63;;;;;;;39.97;35.19;101097.19;5033716;28;20889;-70
2022/09/29 02:15:08;;;;;;;10.83;4.03;;;;;;;39.79;35.27;101090.91;5033703;28;20412;-71
2022/09/29 02:17:37;;;;;;;14.43;5.07;;;;;;;39.88;35.18;101082.78;5033508;28;20419;-70
2022/09/29 02:20:04;;;;;;;11.97;4.63;;;;;;;39.80;35.22;101083.56;5033457;28;20440;-70
2022/09/29 02:22:31;;;;;;;12.10;5.60;;;;;;;39.52;35.96;101072.84;5033430;28;20454;-70
2022/09/29 02:24:58;;;;;;;8.50;3.60;;;;;;;39.43;36.38;101077.44;5033232;28;20463;-70
2022/09/29 02:27:28;;;;;;;11.53;4.43;;;;;;;39.43;36.25;101080.16;5033652;28;20506;-70
2022/09/29 02:29:58;;;;;;;8.17;3.90;;;;;;;38.52;37.99;101083.13;5033791;28;20399;-70
2022/09/29 02:32:24;;;;;;;6.63;3.53;;;;;;;38.69;37.74;101073.22;5033273;28;20838;-71
2022/09/29 02:34:52;;;;;;;6.70;2.80;;;;;;;39.36;36.51;101074.38;5016793;28;20487;-70
2022/09/29 02:37:36;;;;;;;5.60;3.27;;;;;;;39.16;37.10;101068.34;5016917;28;20403;-70
2022/09/29 02:40:27;;;;;;;7.53;3.30;;;;;;;39.07;36.97;101072.09;5033401;28;20960;-70
2022/09/29 02:43:19;;;;;;;5.67;3.10;;;;;;;39.01;37.19;101074.13;5032527;28;20416;-72
2022/09/29 02:46:08;;;;;;;8.43;3.67;;;;;;;39.18;37.02;101079.72;5034709;28;20439;-72
2022/09/29 02:48:55;;;;;;;5.93;2.83;;;;;;;39.35;36.47;101062.72;5022716;28;20416;-71
2022/09/29 02:51:36;;;;;;;10.53;4.03;;;;;;;39.79;36.17;101065.66;5032784;28;20953;-70
2022/09/29 02:54:24;;;;;;;7.33;3.60;;;;;;;40.00;35.52;101072.91;5032900;28;20502;-70
2022/09/29 02:57:10;;;;;;;8.43;3.60;;;;;;;40.10;35.04;101065.63;5033466;28;20450;-70
2022/09/29 03:00:07;;;;;;;8.70;3.63;;;;;;;38.93;36.76;101066.75;5034256;28;20443;-70
2022/09/29 03:02:33;;;;;;;5.47;2.90;;;;;;;39.05;36.77;101064.28;5032695;28;20501;-70
2022/09/29 03:04:59;;;;;;;8.07;3.70;;;;;;;39.21;36.23;101059.28;5032750;28;20473;-70
2022/09/29 03:07:25;;;;;;;9.07;4.50;;;;;;;39.56;35.87;101068.41;5032715;28;20419;-70
2022/09/29 03:09:51;;;;;;;5.50;2.57;;;;;;;39.90;35.06;101062.34;5032638;28;20496;-70
2022/09/29 03:12:17;;;;;;;7.97;4.80;;;;;;;40.02;34.80;101059.81;5032559;28;20930;-70
2022/09/29 03:14:43;;;;;;;9.80;4.10;;;;;;;39.71;35.39;101068.00;5032361;28;20431;-70
2022/09/29 03:17:09;;;;;;;6.13;3.60;;;;;;;39.95;35.09;101077.69;5032509;28;20941;-70
2022/09/29 03:19:36;;;;;;;6.67;4.30;;;;;;;40.19;34.49;101069.16;5032361;28;20455;-70
2022/09/29 03:22:02;;;;;;;9.37;3.43;;;;;;;40.13;34.59;101068.50;5032221;28;20423;-70
2022/09/29 03:24:30;;;;;;;14.80;5.30;;;;;;;39.96;35.07;101063.81;5032132;28;20847;-70
2022/09/29 03:26:57;;;;;;;9.13;3.80;;;;;;;39.93;34.88;101059.00;5032479;28;20426;-71
2022/09/29 03:29:23;;;;;;;8.07;4.50;;;;;;;40.17;34.73;101061.31;5032128;28;20471;-72
2022/09/29 03:31:49;;;;;;;11.50;4.43;;;;;;;40.07;35.05;101058.09;5032189;28;20411;-72
2022/09/29 03:34:15;;;;;;;6.20;3.70;;;;;;;40.06;34.55;101065.44;5032054;28;20769;-70
2022/09/29 03:36:41;;;;;;;8.53;4.47;;;;;;;40.27;34.33;101062.94;5032129;28;20937;-70
2022/09/29 03:39:08;;;;;;;8.77;4.00;;;;;;;40.29;34.58;101071.56;5031937;28;20486;-70
2022/09/29 03:41:34;;;;;;;8.73;3.70;;;;;;;40.34;34.40;101065.97;5031908;28;20443;-70
2022/09/29 03:44:00;;;;;;;9.97;4.10;;;;;;;40.30;34.23;101065.00;5032040;28;20465;-72
2022/09/29 03:46:26;;;;;;;7.87;4.73;;;;;;;40.33;34.39;101063.56;5031665;28;20950;-72
2022/09/29 03:48:53;;;;;;;9.80;3.90;;;;;;;40.28;34.52;101062.63;5031949;28;20462;-72
2022/09/29 03:51:19;;;;;;;10.23;5.47;;;;;;;40.36;34.14;101054.78;5015183;28;20465;-70
2022/09/29 03:53:45;;;;;;;8.73;5.00;;;;;;;40.43;34.34;101061.34;5031593;28;20860;-70
2022/09/29 03:56:11;;;;;;;11.03;4.43;;;;;;;40.42;34.17;101048.06;5031934;28;20945;-70
2022/09/29 03:58:37;;;;;;;9.57;6.47;;;;;;;40.30;34.51;101054.13;5015312;28;20463;-70
2022/09/29 04:01:03;;;;;;;11.23;6.10;;;;;;;40.12;34.85;101053.31;5031697;28;20866;-70
2022/09/29 04:03:29;;;;;;;7.13;3.73;;;;;;;40.24;34.95;101049.97;5031602;28;20427;-70
2022/09/29 04:05:55;;;;;;;8.63;5.93;;;;;;;40.35;34.54;101050.47;5031884;28;20419;-70
2022/09/29 04:08:21;;;;;;;9.63;5.67;;;;;;;40.31;34.62;101060.38;4999163;28;20426;-70
2022/09/29 04:10:47;;;;;;;10.60;5.50;;;;;;;40.25;34.42;101051.56;5015220;28;20526;-70
2022/09/29 04:13:14;;;;;;;17.47;7.20;;;;;;;40.36;34.79;101055.59;5031674;28;20423;-71
2022/09/29 04:15:40;;;;;;;13.60;7.40;;;;;;;40.26;34.60;101053.16;5015135;28;20438;-71
2022/09/29 04:18:06;;;;;;;13.50;6.63;;;;;;;40.31;34.86;101065.81;5031213;28;20460;-70
2022/09/29 04:20:32;;;;;;;13.77;7.90;;;;;;;40.20;34.88;101057.94;5031461;28;20415;-71
2022/09/29 04:22:59;;;;;;;8.50;5.77;;;;;;;40.22;35.11;101057.66;5034038;28;20466;-71
2022/09/29 04:25:27;;;;;;;14.83;8.90;;;;;;;40.31;34.38;101061.16;5052890;28;20392;-71
2022/09/29 04:27:53;;;;;;;10.90;7.23;;;;;;;40.12;35.12;101061.47;5034648;28;20436;-71
2022/09/29 04:30:19;;;;;;;17.13;7.40;;;;;;;39.89;35.32;101060.72;5034525;28;20411;-72
2022/09/29 04:32:45;;;;;;;12.10;6.80;;;;;;;39.98;35.17;101061.56;5034849;28;20430;-72
2022/09/29 04:35:11;;;;;;;9.60;6.40;;;;;;;39.79;35.25;101068.38;5052699;28;20395;-72
2022/09/29 04:37:37;;;;;;;10.33;6.30;;;;;;;40.16;34.64;101075.22;5034482;28;20917;-72
2022/09/29 04:40:04;;;;;;;8.50;4.93;;;;;;;40.03;34.90;101076.91;5035180;28;20468;-70
2022/09/29 04:42:31;;;;;;;11.33;5.47;;;;;;;38.57;37.32;101075.66;5052625;28;20398;-69
2022/09/29 04:44:57;;;;;;;18.87;8.50;;;;;;;39.59;36.11;101070.47;5034484;28;20437;-70
2022/09/29 04:47:23;;;;;;;13.17;6.00;;;;;;;39.78;35.54;101074.91;5034410;28;20830;-72
2022/09/29 04:49:49;;;;;;;10.60;6.57;;;;;;;39.85;35.31;101072.56;5034470;28;20421;-72
2022/09/29 04:52:15;;;;;;;11.57;6.07;;;;;;;39.71;35.88;101072.63;5034447;28;20955;-70
2022/09/29 04:54:41;;;;;;;15.73;7.80;;;;;;;39.92;35.48;101076.41;5052375;28;20445;-70
2022/09/29 04:57:07;;;;;;;10.93;6.23;;;;;;;40.07;34.63;101077.09;5034471;28;20418;-70
2022/09/29 04:59:33;;;;;;;10.50;6.60;;;;;;;40.10;35.05;101077.28;5018169;28;20458;-70
2022/09/29 05:01:59;;;;;;;9.67;6.23;;;;;;;40.02;34.91;101076.13;5034399;28;20476;-70
2022/09/29 05:04:25;;;;;;;11.10;6.43;;;;;;;40.06;35.28;101078.22;5034997;28;20814;-71
2022/09/29 05:06:51;;;;;;;13.00;6.60;;;;;;;40.15;34.74;101076.34;5038238;28;20422;-71
2022/09/29 05:09:17;;;;;;;9.93;5.90;;;;;;;40.23;34.84;101076.34;5038135;28;20446;-70
2022/09/29 05:11:43;;;;;;;15.37;8.13;;;;;;;40.21;34.59;101073.16;5038113;28;20411;-71
2022/09/29 05:14:10;;;;;;;21.23;7.40;;;;;;;40.30;34.57;101078.59;5056407;28;20793;-70
2022/09/29 05:16:36;;;;;;;12.50;7.13;;;;;;;40.39;34.72;101084.03;5038020;28;20529;-70
2022/09/29 05:19:02;;;;;;;13.27;7.43;;;;;;;40.41;34.86;101085.34;5037810;28;20454;-71
2022/09/29 05:21:28;;;;;;;11.87;6.93;;;;;;;40.45;34.39;101093.63;5038012;28;20476;-70
2022/09/29 05:23:55;;;;;;;9.83;7.00;;;;;;;40.28;34.36;101087.06;5034261;28;20985;-72
2022/09/29 05:26:22;;;;;;;13.47;7.77;;;;;;;40.34;34.68;101092.38;5051174;28;20480;-68
2022/09/29 05:28:48;;;;;;;13.63;8.20;;;;;;;40.35;34.87;101100.19;5054422;28;20431;-71
2022/09/29 05:31:14;;;;;;;13.53;7.57;;;;;;;40.15;35.15;101100.81;5054115;28;20411;-71
2022/09/29 05:33:40;;;;;;;9.80;8.10;;;;;;;40.18;34.80;101108.31;5054568;28;20450;-71
2022/09/29 05:36:09;;;;;;;16.33;8.47;;;;;;;40.15;35.46;101111.66;5037508;28;20426;-70
2022/09/29 05:38:36;;;;;;;15.23;8.47;;;;;;;40.12;35.12;101112.28;5054130;28;20531;-70
2022/09/29 05:41:08;;;;;;;13.00;7.93;;;;;;;40.06;35.56;101116.25;5053999;28;20415;-70
2022/09/29 05:43:34;;;;;;;14.27;9.40;;;;;;;40.11;35.39;101116.13;5015428;28;20902;-70
2022/09/29 05:46:06;;;;;;;17.57;9.57;;;;;;;40.21;35.24;101118.56;5037140;28;20921;-71
2022/09/29 05:48:32;;;;;;;17.50;10.03;;;;;;;40.32;35.09;101129.91;5009323;28;20422;-71
2022/09/29 05:51:05;;;;;;;15.53;9.87;;;;;;;40.34;35.19;101131.22;5054078;28;20407;-71
2022/09/29 05:53:31;;;;;;;13.03;8.90;;;;;;;40.34;35.23;101131.22;5054023;28;20418;-73
2022/09/29 05:55:57;;;;;;;18.57;11.33;;;;;;;40.38;35.32;101137.59;5054289;28;20402;-72
2022/09/29 05:58:23;;;;;;;18.97;12.03;;;;;;;40.25;35.11;101128.47;5037447;28;20461;-75
2022/09/29 06:00:49;;;;;;;17.77;11.60;;;;;;;40.29;35.15;101137.59;5048148;28;20450;-76
2022/09/29 06:03:15;;;;;;;28.83;17.17;;;;;;;40.37;35.01;101132.50;5049513;28;20411;-73
2022/09/29 06:05:42;;;;;;;20.83;14.60;;;;;;;40.22;35.29;101139.97;5068494;28;20419;-76
2022/09/29 06:08:09;;;;;;;22.10;14.43;;;;;;;40.28;35.44;101144.16;5042555;28;20427;-75
2022/09/29 06:10:35;;;;;;;23.20;15.27;;;;;;;40.37;35.21;101146.88;5044545;28;20464;-71
2022/09/29 06:13:02;;;;;;;24.90;16.27;;;;;;;40.40;35.06;101150.91;5045992;28;20423;-74
2022/09/29 06:15:28;;;;;;;31.20;21.43;;;;;;;40.39;35.10;101146.56;5049676;28;20425;-72
2022/09/29 06:17:55;;;;;;;28.63;20.63;;;;;;;40.42;34.87;101157.59;5042938;28;20454;-70
2022/09/29 06:20:21;;;;;;;30.60;16.73;;;;;;;40.45;34.90;101159.69;5041565;28;20420;-70
2022/09/29 06:22:48;;;;;;;17.50;12.90;;;;;;;40.45;34.96;101156.97;5042369;28;20428;-75
2022/09/29 06:25:14;;;;;;;22.27;11.53;;;;;;;40.42;34.62;101154.09;5038659;28;20857;-70
2022/09/29 06:27:40;;;;;;;21.37;11.67;;;;;;;40.50;34.89;101156.84;5056370;28;20932;-71
2022/09/29 06:30:07;;;;;;;26.00;12.67;;;;;;;40.58;34.83;101160.72;5053605;28;20425;-71
2022/09/29 06:32:34;;;;;;;21.40;13.40;;;;;;;40.64;34.39;101155.91;5054597;28;20410;-71
2022/09/29 06:37:45;;;;;;;19.67;12.60;;;;;;;40.67;34.29;101163.44;5072305;28;21010;-72
2022/09/29 06:40:12;;;;;;;14.80;11.77;;;;;;;40.65;34.18;101158.31;5054584;28;20417;-71
2022/09/29 06:42:38;;;;;;;13.33;8.90;;;;;;;40.65;34.04;101171.13;5052966;28;20405;-72
2022/09/29 06:45:05;;;;;;;20.47;14.33;;;;;;;40.60;34.52;101174.78;5052641;28;20954;-71
2022/09/29 06:47:31;;;;;;;22.67;16.87;;;;;;;40.65;34.35;101173.84;5062826;28;20411;-71
2022/09/29 06:49:59;;;;;;;14.57;9.77;;;;;;;40.43;34.48;101175.53;5037093;28;20429;-71
2022/09/29 06:52:25;;;;;;;11.30;9.83;;;;;;;40.52;34.76;101181.03;5044278;28;20504;-71
2022/09/29 06:54:52;;;;;;;15.73;9.43;;;;;;;40.55;34.52;101183.09;5044097;28;20485;-71
2022/09/29 06:57:18;;;;;;;10.23;7.17;;;;;;;40.64;34.44;101188.53;5046432;28;20504;-71
2022/09/29 06:59:44;;;;;;;10.87;7.30;;;;;;;40.28;34.87;101190.34;5063422;28;20477;-71
2022/09/29 07:02:11;;;;;;;16.93;7.90;;;;;;;40.23;34.88;101187.78;5044465;28;20433;-71
2022/09/29 07:04:37;;;;;;;12.23;7.27;;;;;;;40.26;35.06;101191.78;5044787;28;20411;-69
2022/09/29 07:07:03;;;;;;;14.03;7.30;;;;;;;40.38;34.94;101204.75;5049195;28;20462;-69
2022/09/29 07:09:29;;;;;;;13.00;6.37;;;;;;;40.32;35.09;101204.09;5038655;28;20814;-69
2022/09/29 07:11:55;;;;;;;12.33;8.00;;;;;;;40.36;34.90;101199.66;5035862;28;20442;-69
2022/09/29 07:14:22;;;;;;;13.77;6.67;;;;;;;40.42;35.08;101206.53;5035934;28;20429;-70
2022/09/29 07:16:49;;;;;;;11.30;6.60;;;;;;;40.36;34.85;101215.97;5041566;28;20419;-70
2022/09/29 07:19:16;;;;;;;13.83;6.90;;;;;;;40.02;35.14;101216.56;5070537;28;20556;-69
2022/09/29 07:21:43;;;;;;;11.63;6.47;;;;;;;39.93;35.90;101221.97;5055361;28;20505;-69
2022/09/29 07:24:09;;;;;;;11.53;5.80;;;;;;;39.92;35.91;101222.28;5038990;28;20832;-70
2022/09/29 07:26:36;;;;;;;13.93;6.13;;;;;;;39.95;35.83;101229.81;5071577;28;20434;-71
2022/09/29 07:29:03;;;;;;;9.33;5.40;;;;;;;39.38;36.57;101229.56;5033064;28;20936;-71
2022/09/29 07:31:29;;;;;;;15.47;5.43;;;;;;;39.85;36.27;101228.19;5073615;28;20410;-71
2022/09/29 07:33:55;;;;;;;9.90;5.13;;;;;;;39.55;36.35;101240.56;5055228;28;20422;-69
2022/09/29 07:36:22;;;;;;;15.00;8.63;;;;;;;40.13;35.43;101234.25;5055060;28;20409;-70
2022/09/29 07:38:49;;;;;;;17.07;8.73;;;;;;;40.17;35.14;101234.44;5054920;28;20458;-71
2022/09/29 07:41:18;;;;;;;12.37;8.03;;;;;;;39.96;35.93;101239.56;5073497;28;20440;-71
2022/09/29 07:43:44;;;;;;;12.43;7.80;;;;;;;39.76;35.88;101257.97;5053797;28;20413;-71
2022/09/29 07:46:10;;;;;;;13.80;6.70;;;;;;;39.76;35.80;101254.47;5053116;28;20406;-70
2022/09/29 07:48:37;;;;;;;15.80;6.10;;;;;;;40.19;35.27;101252.03;5053224;28;20414;-69
2022/09/29 07:51:07;;;;;;;9.20;5.10;;;;;;;40.34;35.39;101263.63;5053208;28;20426;-71
2022/09/29 07:53:35;;;;;;;9.27;5.23;;;;;;;40.33;35.07;101256.53;5053136;28;20418;-71
2022/09/29 07:56:09;;;;;;;6.20;4.40;;;;;;;40.44;34.62;101268.75;5071370;28;20399;-71
2022/09/29 07:58:36;;;;;;;10.93;5.87;;;;;;;40.08;35.83;101275.13;5072255;28;20449;-69
2022/09/29 08:01:06;;;;;;;11.10;4.53;;;;;;;39.94;35.95;101268.97;5055005;28;20456;-69
2022/09/29 08:03:32;;;;;;;8.80;5.47;;;;;;;40.65;35.24;101261.66;5054914;28;20414;-69
2022/09/29 08:05:58;;;;;;;10.20;5.13;;;;;;;40.88;34.72;101275.94;5054728;28;20442;-69
2022/09/29 08:08:25;;;;;;;9.70;5.27;;;;;;;40.95;33.96;101278.25;5054747;28;20440;-69
2022/09/29 08:10:52;;;;;;;9.70;5.37;;;;;;;41.13;33.85;101273.63;5072991;28;20433;-71
2022/09/29 08:13:18;;;;;;;7.20;4.80;;;;;;;41.16;33.71;101275.72;5073093;28;20426;-71
2022/09/29 08:15:44;;;;;;;7.57;5.37;;;;;;;40.37;35.40;101282.00;5072998;28;20463;-71
2022/09/29 08:18:10;;;;;;;8.10;4.70;;;;;;;41.27;33.83;101279.72;5054556;28;20454;-71
2022/09/29 08:20:36;;;;;;;7.70;5.37;;;;;;;41.46;33.34;101279.44;5054728;28;20528;-69
2022/09/29 08:23:02;;;;;;;9.60;6.00;;;;;;;41.52;33.30;101276.22;5054407;28;20512;-69
2022/09/29 08:25:28;;;;;;;9.17;5.43;;;;;;;41.51;33.03;101282.81;5072897;28;20394;-69
2022/09/29 08:27:54;;;;;;;10.20;5.70;;;;;;;41.47;33.32;101283.75;5054866;28;20424;-71
2022/09/29 08:30:21;;;;;;;16.20;6.43;;;;;;;41.84;32.48;101279.56;5054865;28;20413;-71
2022/09/29 08:32:54;;;;;;;9.83;6.03;;;;;;;41.78;32.54;101284.38;5054592;28;20414;-71
2022/09/29 08:35:20;;;;;;;13.73;6.80;;;;;;;41.89;32.38;101284.06;5054443;28;20417;-69
2022/09/29 08:37:47;;;;;;;8.10;4.87;;;;;;;41.96;32.15;101295.25;5054561;28;20479;-69
2022/09/29 08:40:14;;;;;;;9.30;5.00;;;;;;;42.10;32.25;101285.75;5056593;28;20426;-69
2022/09/29 08:43:05;;;;;;;8.70;5.57;;;;;;;42.04;32.05;101294.44;5042447;28;20410;-69
2022/09/29 08:46:09;;;;;;;9.07;5.60;;;;;;;41.98;32.04;101295.72;5058974;28;20469;-69
2022/09/29 08:48:44;;;;;;;11.10;5.60;;;;;;;41.60;33.13;101301.84;5071854;28;20495;-72
2022/09/29 08:51:25;;;;;;;15.93;7.93;;;;;;;41.53;33.46;101299.59;5043592;28;20453;-69
2022/09/29 08:53:56;;;;;;;9.87;5.90;;;;;;;41.16;33.23;101316.53;5042188;28;20445;-69
2022/09/29 08:56:24;;;;;;;8.07;6.00;;;;;;;41.47;33.33;101308.25;5058413;28;20418;-71
2022/09/29 08:58:51;;;;;;;12.13;7.23;;;;;;;41.17;33.56;101315.41;5058318;28;20457;-71
2022/09/29 09:01:26;;;;;;;12.00;5.87;;;;;;;41.12;33.71;101310.13;5076476;28;20842;-69
2022/09/29 09:03:52;;;;;;;15.00;6.77;;;;;;;41.68;33.31;101311.94;5058169;28;20447;-69
2022/09/29 09:06:27;;;;;;;16.70;6.63;;;;;;;41.68;32.97;101313.84;5058309;28;20413;-69
2022/09/29 09:09:27;;;;;;;12.03;8.27;;;;;;;41.50;32.93;101313.88;5076181;28;20466;-69
2022/09/29 09:12:15;;;;;;;11.50;7.30;;;;;;;41.56;32.96;101314.53;5041468;28;20405;-69
2022/09/29 09:14:50;;;;;;;15.37;7.43;;;;;;;41.36;33.04;101315.13;5058024;28;20479;-69
2022/09/29 09:18:05;;;;;;;21.10;7.87;;;;;;;41.57;33.15;101318.84;5057941;28;20439;-69
2022/09/29 09:20:35;;;;;;;17.17;8.37;;;;;;;41.47;33.02;101324.59;5057931;28;21008;-69
2022/09/29 09:23:33;;;;;;;19.73;8.90;;;;;;;41.75;33.16;101331.38;5075819;28;20468;-69
2022/09/29 09:26:03;;;;;;;21.53;7.87;;;;;;;41.17;33.54;101327.09;5038840;28;20447;-69
2022/09/29 09:28:39;;;;;;;13.30;7.83;;;;;;;41.53;33.09;101318.66;5041129;28;20417;-69
2022/09/29 09:31:08;;;;;;;12.60;6.80;;;;;;;41.71;32.87;101315.94;5058842;28;20538;-69
2022/09/29 09:33:51;;;;;;;11.53;4.80;;;;;;;41.21;33.99;101324.56;5075886;28;20390;-69
2022/09/29 09:36:40;;;;;;;12.33;6.30;;;;;;;41.66;33.17;101327.78;5026055;28;20450;-69
2022/09/29 09:39:21;;;;;;;7.33;3.90;;;;;;;41.36;32.80;101323.31;5075693;28;20529;-69
2022/09/29 09:41:51;;;;;;;7.93;4.97;;;;;;;41.72;32.90;101317.53;5041605;28;20436;-69
2022/09/29 09:44:24;;;;;;;13.70;4.47;;;;;;;41.61;32.43;101322.50;5057498;28;20418;-70
2022/09/29 09:47:08;;;;;;;9.70;5.73;;;;;;;41.67;32.45;101323.94;5057403;28;20441;-70
2022/09/29 09:50:15;;;;;;;8.20;4.90;;;;;;;41.83;31.93;101325.09;5057855;28;20401;-69
2022/09/29 09:52:51;;;;;;;11.83;4.50;;;;;;;41.94;32.23;101319.31;5060107;28;20436;-69
2022/09/29 09:55:20;;;;;;;9.83;4.67;;;;;;;41.87;31.85;101319.81;5041272;28;20526;-70
2022/09/29 09:58:32;;;;;;;9.73;5.10;;;;;;;42.22;31.75;101309.63;5057225;28;20491;-71
2022/09/29 10:01:03;;;;;;;13.03;5.93;;;;;;;42.09;32.01;101311.41;5057105;28;20973;-71
2022/09/29 10:03:30;;;;;;;7.17;3.30;;;;;;;42.07;31.97;101316.41;5075209;28;20390;-69
2022/09/29 10:05:57;;;;;;;10.73;3.53;;;;;;;41.99;31.94;101309.06;5075372;28;20448;-69
2022/09/29 10:08:29;;;;;;;10.53;4.40;;;;;;;42.27;31.61;101306.75;5056920;28;20418;-69
2022/09/29 10:10:57;;;;;;;7.37;4.07;;;;;;;42.30;31.58;101310.75;5075246;28;20433;-69
2022/09/29 10:13:29;;;;;;;6.73;4.03;;;;;;;42.44;30.87;101308.59;5056985;28;20414;-69
2022/09/29 10:16:16;;;;;;;7.80;4.17;;;;;;;42.45;30.77;101312.94;5056790;28;20424;-69
2022/09/29 10:18:51;;;;;;;9.43;4.80;;;;;;;42.60;31.05;101306.97;5075108;28;20528;-69
2022/09/29 10:21:22;;;;;;;6.50;3.73;;;;;;;42.71;30.80;101309.31;5074998;28;20404;-69
2022/09/29 10:23:53;;;;;;;9.60;3.60;;;;;;;42.65;30.87;101306.75;5074698;28;20817;-71
2022/09/29 10:26:42;;;;;;;7.17;3.50;;;;;;;42.46;31.08;101308.28;5056648;28;20410;-72
2022/09/29 10:29:32;;;;;;;7.90;4.10;;;;;;;42.44;30.85;101308.59;5056736;28;20414;-69
2022/09/29 10:32:18;;;;;;;13.83;5.90;;;;;;;42.58;30.66;101298.28;5056863;28;20496;-69
2022/09/29 10:35:22;;;;;;;7.67;3.73;;;;;;;42.36;31.10;101296.63;5039858;28;20969;-69
2022/09/29 10:38:24;;;;;;;9.40;3.90;;;;;;;42.41;31.21;101284.69;5056572;28;20445;-69
2022/09/29 10:41:02;;;;;;;9.80;4.00;;;;;;;42.17;31.21;101281.75;5050509;28;20434;-73
2022/09/29 10:43:40;;;;;;;8.23;3.90;;;;;;;42.20;31.10;101284.63;5056486;28;20418;-71
2022/09/29 10:46:35;;;;;;;7.80;4.40;;;;;;;42.33;31.41;101286.34;5056307;28;20425;-70
2022/09/29 10:49:17;;;;;;;6.40;3.70;;;;;;;42.27;31.32;101282.19;5040967;28;20441;-69
2022/09/29 10:51:53;;;;;;;12.13;4.60;;;;;;;42.53;30.71;101278.56;5074414;28;20880;-70
2022/09/29 10:54:24;;;;;;;10.67;4.63;;;;;;;42.71;30.68;101271.91;5056262;28;20457;-70
2022/09/29 10:56:52;;;;;;;13.07;5.30;;;;;;;42.32;31.29;101265.66;5055992;28;20810;-70
2022/09/29 10:59:18;;;;;;;11.70;4.33;;;;;;;42.16;31.23;101275.50;5056031;28;20465;-71
2022/09/29 11:01:55;;;;;;;14.63;4.60;;;;;;;42.35;31.37;101259.53;5055517;28;20514;-70
2022/09/29 11:04:23;;;;;;;10.40;4.43;;;;;;;42.45;31.30;101260.31;5074151;28;20394;-70
2022/09/29 11:06:50;;;;;;;11.63;5.63;;;;;;;42.59;31.22;101255.44;5074147;28;20437;-70
2022/09/29 11:09:19;;;;;;;11.40;5.37;;;;;;;42.11;31.62;101251.13;5055845;28;20438;-71
2022/09/29 11:11:48;;;;;;;8.67;4.47;;;;;;;42.49;31.06;101251.16;5074072;28;20438;-70
2022/09/29 11:14:26;;;;;;;10.03;5.27;;;;;;;42.54;31.25;101250.97;5073999;28;20430;-72
2022/09/29 11:16:56;;;;;;;9.90;4.37;;;;;;;42.56;31.20;101243.25;5055826;28;21001;-74
2022/09/29 11:19:22;;;;;;;12.00;4.30;;;;;;;42.53;30.90;101238.44;5055582;28;20472;-72
2022/09/29 11:21:55;;;;;;;9.73;4.73;;;;;;;42.40;31.36;101237.53;5055682;28;20504;-75
2022/09/29 11:24:55;;;;;;;9.23;4.90;;;;;;;42.25;31.31;101234.59;5055272;28;20469;-71
2022/09/29 11:27:39;;;;;;;13.77;5.03;;;;;;;42.21;31.50;101231.72;5038951;28;20820;-71
2022/09/29 11:30:19;;;;;;;8.90;4.47;;;;;;;42.38;31.45;101223.44;5055434;28;20409;-69
2022/09/29 11:33:16;;;;;;;11.67;6.03;;;;;;;42.19;31.40;101216.81;5055407;28;20418;-70
2022/09/29 11:36:00;;;;;;;8.53;3.50;;;;;;;42.39;31.28;101214.13;5055503;28;20835;-70
2022/09/29 11:38:55;;;;;;;7.93;4.20;;;;;;;42.28;31.95;101215.63;5055253;28;21022;-70
2022/09/29 11:41:30;;;;;;;13.20;5.33;;;;;;;41.69;32.79;101218.22;5055319;28;20409;-72
2022/09/29 11:44:07;;;;;;;9.60;4.17;;;;;;;42.24;31.64;101206.53;5073619;28;20835;-72